Max Loyalty — 9HA4065 — position and weather

sailwx.info

Track history (hours):
 
Tides and Currents Weather Stations Pressure Air Temp Water Temp Dewpoint Dewpoint Depression Visibility Wind Speed Wind Dir Waves Ship Positions

Max Loyalty

Last reported at 2017-Nov-24 23:48 UTC. Time now 2017-Nov-25 00:06 UTC.
Position N 28°09' W 015°25'.

Length 134 m; draft 7.5 m.

Type: Ship. MMSI: 249037000.

Date/timePositionNaut miles runAvg speedWind from/ knotsBaromVisibWave heightAir tempDewpointWater temp
2017-Nov-24 23:48N 28°09' W 015°25'0 0.0
2017-Nov-24 23:30N 28°09' W 015°25'0 0.0
2017-Nov-24 23:00N 28°09' W 015°25'0 0.0
2017-Nov-24 22:27N 28°09' W 015°25'0 0.0
2017-Nov-24 21:53N 28°09' W 015°25'0 0.0
2017-Nov-24 21:20N 28°09' W 015°25'0 0.0
2017-Nov-24 20:59N 28°09' W 015°25'0 0.0
2017-Nov-24 20:26N 28°09' W 015°25'0 0.0
2017-Nov-24 20:00N 28°09' W 015°25'0 0.0
2017-Nov-24 19:30N 28°09' W 015°25'1 2.5
2017-Nov-24 19:00N 28°07' W 015°24'1 1.7
2017-Nov-24 18:24N 28°08' W 015°24'0 0.0
2017-Nov-24 17:50N 28°08' W 015°24'0 0.0
2017-Nov-24 17:29N 28°08' W 015°24'0 0.1
2017-Nov-24 16:59N 28°08' W 015°24'0 0.0
2017-Nov-24 16:29N 28°08' W 015°24'0 0.0
2017-Nov-24 15:53N 28°08' W 015°24'0 0.1
2017-Nov-24 15:19N 28°08' W 015°24'0 0.1
2017-Nov-24 14:58N 28°08' W 015°24'0 0.1
2017-Nov-24 14:28N 28°08' W 015°24'0 0.1
2017-Nov-24 13:58N 28°08' W 015°24'0 0.0
2017-Nov-24 13:22N 28°08' W 015°24'0 0.0
2017-Nov-24 13:00N 28°08' W 015°24'0 0.0
2017-Nov-24 12:30N 28°08' W 015°24'0 0.0
2017-Nov-24 12:00N 28°08' W 015°24'0 0.0
2017-Nov-24 11:24N 28°08' W 015°24'0 0.0
2017-Nov-24 10:50N 28°08' W 015°24'0 0.0
2017-Nov-24 10:29N 28°08' W 015°24'0 0.0
2017-Nov-24 09:59N 28°08' W 015°24'0 0.0
2017-Nov-24 09:26N 28°08' W 015°24'0 0.0
2017-Nov-24 08:53N 28°08' W 015°24'0 0.0
2017-Nov-24 08:19N 28°08' W 015°24'0 0.0
2017-Nov-24 07:58N 28°08' W 015°24'0 0.0
2017-Nov-24 07:28N 28°08' W 015°24'0 0.0
2017-Nov-24 06:55N 28°08' W 015°24'0 0.0
2017-Nov-24 06:21N 28°08' W 015°24'0 0.0
2017-Nov-24 06:00N 28°08' W 015°24'0 0.0
2017-Nov-24 05:30N 28°08' W 015°24'0 0.0
2017-Nov-24 04:57N 28°08' W 015°24'0 0.0
2017-Nov-24 04:24N 28°08' W 015°24'0 0.0
2017-Nov-24 03:50N 28°08' W 015°24'0 0.0
2017-Nov-24 03:29N 28°08' W 015°24'0 0.0
2017-Nov-24 02:59N 28°08' W 015°24'0 0.0
2017-Nov-24 02:26N 28°08' W 015°24'0 0.0
2017-Nov-24 01:53N 28°08' W 015°24'0 0.1
2017-Nov-24 01:19N 28°08' W 015°24'0 0.1
2017-Nov-24 00:58N 28°08' W 015°24'1 1.7
2017-Nov-24 00:30N 28°08' W 015°23'1 1.3
2017-Nov-24 00:00N 28°08' W 015°22'2 4.0
2017-Nov-23 23:30N 28°09' W 015°20'713.6
2017-Nov-23 23:00N 28°14' W 015°15'713.9
2017-Nov-23 22:30N 28°19' W 015°10'714.0
2017-Nov-23 22:00N 28°24' W 015°04'713.6
2017-Nov-23 21:30N 28°29' W 014°59'713.4
2017-Nov-23 21:00N 28°34' W 014°53'713.4
2017-Nov-23 20:30N 28°39' W 014°48'713.5
2017-Nov-23 20:00N 28°44' W 014°43'713.4
2017-Nov-23 19:30N 28°49' W 014°38'713.5
2017-Nov-23 19:00N 28°53' W 014°32'713.5
2017-Nov-23 18:30N 28°58' W 014°27'713.5
2017-Nov-23 18:00N 29°03' W 014°22'713.5
2017-Nov-23 17:30N 29°08' W 014°17'713.5
2017-Nov-23 17:00N 29°14' W 014°12'713.4
2017-Nov-23 16:29N 29°18' W 014°06'613.1
2017-Nov-23 16:00N 29°23' W 014°01'612.9
2017-Nov-23 15:30N 29°27' W 013°56'713.1
2017-Nov-23 15:00N 29°32' W 013°50'18013.7
2017-Nov-23 01:52N 31°43' W 011°27'514.2
2017-Nov-23 01:30N 31°47' W 011°23'4414.2
2017-Nov-22 22:26N 32°18' W 010°47'613.9
2017-Nov-22 21:59N 32°23' W 010°42'713.7
2017-Nov-22 21:29N 32°28' W 010°36'  
2017-Nov-17 08:49N 36°00' W 005°12'514.5
2017-Nov-17 08:30N 36°02' W 005°18'9 2.1
2017-Nov-17 04:03N 36°08' W 005°26'0 0.0
2017-Nov-16 04:22N 36°08' W 005°26'2 4.8
2017-Nov-16 04:00N 36°08' W 005°24'4 8.7
2017-Nov-16 03:30N 36°05' W 005°20'1 3.0
2017-Nov-16 03:00N 36°04' W 005°19'0 0.9
2017-Nov-16 02:30N 36°04' W 005°18'4 7.0
2017-Nov-16 02:00N 36°04' W 005°14'1 1.0
2017-Nov-16 01:30N 36°05' W 005°14'0 0.9
2017-Nov-16 01:00N 36°05' W 005°14'1 1.0
2017-Nov-16 00:30N 36°06' W 005°14'0 0.8
2017-Nov-16 00:00N 36°06' W 005°15'0 0.5
2017-Nov-15 23:30N 36°06' W 005°15'0 0.6
2017-Nov-15 23:00N 36°07' W 005°15'3 4.5
2017-Nov-15 22:23N 36°06' W 005°12'1 2.4
2017-Nov-15 22:00N 36°05' W 005°11'1 1.3
2017-Nov-15 21:30N 36°05' W 005°12'2 1.1
2017-Nov-15 19:56N 36°05' W 005°14'2 4.1
2017-Nov-15 19:30N 36°04' W 005°16'2 4.6
2017-Nov-15 19:00N 36°04' W 005°19'0 0.9
2017-Nov-15 18:30N 36°04' W 005°18'1 1.2
2017-Nov-15 18:00N 36°04' W 005°19'0 0.4
2017-Nov-15 17:30N 36°04' W 005°19'0 0.4
2017-Nov-15 17:00N 36°04' W 005°19'2 4.1
2017-Nov-15 16:30N 36°02' W 005°20'714.3
2017-Nov-15 16:01N 35°58' W 005°27'  
Track history (hours):
 
Tides and Currents Weather Stations Pressure Air Temp Water Temp Dewpoint Dewpoint Depression Visibility Wind Speed Wind Dir Waves Ship Positions

Max Loyalty

Last reported at 2017-Nov-24 23:48 UTC. Time now 2017-Nov-25 00:06 UTC.
Position N 28°09' W 015°25'.

Length 134 m; draft 7.5 m.

Type: Ship. MMSI: 249037000.

Date/timePositionNaut miles runAvg speedWind from/ knotsBaromVisibWave heightAir tempDewpointWater temp
2017-Nov-24 23:48N 28°09' W 015°25'0 0.0
2017-Nov-24 23:30N 28°09' W 015°25'0 0.0
2017-Nov-24 23:00N 28°09' W 015°25'0 0.0
2017-Nov-24 22:27N 28°09' W 015°25'0 0.0
2017-Nov-24 21:53N 28°09' W 015°25'0 0.0
2017-Nov-24 21:20N 28°09' W 015°25'0 0.0
2017-Nov-24 20:59N 28°09' W 015°25'0 0.0
2017-Nov-24 20:26N 28°09' W 015°25'0 0.0
2017-Nov-24 20:00N 28°09' W 015°25'0 0.0
2017-Nov-24 19:30N 28°09' W 015°25'1 2.5
2017-Nov-24 19:00N 28°07' W 015°24'1 1.7
2017-Nov-24 18:24N 28°08' W 015°24'0 0.0
2017-Nov-24 17:50N 28°08' W 015°24'0 0.0
2017-Nov-24 17:29N 28°08' W 015°24'0 0.1
2017-Nov-24 16:59N 28°08' W 015°24'0 0.0
2017-Nov-24 16:29N 28°08' W 015°24'0 0.0
2017-Nov-24 15:53N 28°08' W 015°24'0 0.1
2017-Nov-24 15:19N 28°08' W 015°24'0 0.1
2017-Nov-24 14:58N 28°08' W 015°24'0 0.1
2017-Nov-24 14:28N 28°08' W 015°24'0 0.1
2017-Nov-24 13:58N 28°08' W 015°24'0 0.0
2017-Nov-24 13:22N 28°08' W 015°24'0 0.0
2017-Nov-24 13:00N 28°08' W 015°24'0 0.0
2017-Nov-24 12:30N 28°08' W 015°24'0 0.0
2017-Nov-24 12:00N 28°08' W 015°24'0 0.0
2017-Nov-24 11:24N 28°08' W 015°24'0 0.0
2017-Nov-24 10:50N 28°08' W 015°24'0 0.0
2017-Nov-24 10:29N 28°08' W 015°24'0 0.0
2017-Nov-24 09:59N 28°08' W 015°24'0 0.0
2017-Nov-24 09:26N 28°08' W 015°24'0 0.0
2017-Nov-24 08:53N 28°08' W 015°24'0 0.0
2017-Nov-24 08:19N 28°08' W 015°24'0 0.0
2017-Nov-24 07:58N 28°08' W 015°24'0 0.0
2017-Nov-24 07:28N 28°08' W 015°24'0 0.0
2017-Nov-24 06:55N 28°08' W 015°24'0 0.0
2017-Nov-24 06:21N 28°08' W 015°24'0 0.0
2017-Nov-24 06:00N 28°08' W 015°24'0 0.0
2017-Nov-24 05:30N 28°08' W 015°24'0 0.0
2017-Nov-24 04:57N 28°08' W 015°24'0 0.0
2017-Nov-24 04:24N 28°08' W 015°24'0 0.0
2017-Nov-24 03:50N 28°08' W 015°24'0 0.0
2017-Nov-24 03:29N 28°08' W 015°24'0 0.0
2017-Nov-24 02:59N 28°08' W 015°24'0 0.0
2017-Nov-24 02:26N 28°08' W 015°24'0 0.0
2017-Nov-24 01:53N 28°08' W 015°24'0 0.1
2017-Nov-24 01:19N 28°08' W 015°24'0 0.1
2017-Nov-24 00:58N 28°08' W 015°24'1 1.7
2017-Nov-24 00:30N 28°08' W 015°23'1 1.3
2017-Nov-24 00:00N 28°08' W 015°22'2 4.0
2017-Nov-23 23:30N 28°09' W 015°20'713.6
2017-Nov-23 23:00N 28°14' W 015°15'713.9
2017-Nov-23 22:30N 28°19' W 015°10'714.0
2017-Nov-23 22:00N 28°24' W 015°04'713.6
2017-Nov-23 21:30N 28°29' W 014°59'713.4
2017-Nov-23 21:00N 28°34' W 014°53'713.4
2017-Nov-23 20:30N 28°39' W 014°48'713.5
2017-Nov-23 20:00N 28°44' W 014°43'713.4
2017-Nov-23 19:30N 28°49' W 014°38'713.5
2017-Nov-23 19:00N 28°53' W 014°32'713.5
2017-Nov-23 18:30N 28°58' W 014°27'713.5
2017-Nov-23 18:00N 29°03' W 014°22'713.5
2017-Nov-23 17:30N 29°08' W 014°17'713.5
2017-Nov-23 17:00N 29°14' W 014°12'713.4
2017-Nov-23 16:29N 29°18' W 014°06'613.1
2017-Nov-23 16:00N 29°23' W 014°01'612.9
2017-Nov-23 15:30N 29°27' W 013°56'713.1
2017-Nov-23 15:00N 29°32' W 013°50'18013.7
2017-Nov-23 01:52N 31°43' W 011°27'514.2
2017-Nov-23 01:30N 31°47' W 011°23'4414.2
2017-Nov-22 22:26N 32°18' W 010°47'613.9
2017-Nov-22 21:59N 32°23' W 010°42'713.7
2017-Nov-22 21:29N 32°28' W 010°36'  
2017-Nov-17 08:49N 36°00' W 005°12'514.5
2017-Nov-17 08:30N 36°02' W 005°18'9 2.1
2017-Nov-17 04:03N 36°08' W 005°26'0 0.0
2017-Nov-16 04:22N 36°08' W 005°26'2 4.8
2017-Nov-16 04:00N 36°08' W 005°24'4 8.7
2017-Nov-16 03:30N 36°05' W 005°20'1 3.0
2017-Nov-16 03:00N 36°04' W 005°19'0 0.9
2017-Nov-16 02:30N 36°04' W 005°18'4 7.0
2017-Nov-16 02:00N 36°04' W 005°14'1 1.0
2017-Nov-16 01:30N 36°05' W 005°14'0 0.9
2017-Nov-16 01:00N 36°05' W 005°14'1 1.0
2017-Nov-16 00:30N 36°06' W 005°14'0 0.8
2017-Nov-16 00:00N 36°06' W 005°15'0 0.5
2017-Nov-15 23:30N 36°06' W 005°15'0 0.6
2017-Nov-15 23:00N 36°07' W 005°15'3 4.5
2017-Nov-15 22:23N 36°06' W 005°12'1 2.4
2017-Nov-15 22:00N 36°05' W 005°11'1 1.3
2017-Nov-15 21:30N 36°05' W 005°12'2 1.1
2017-Nov-15 19:56N 36°05' W 005°14'2 4.1
2017-Nov-15 19:30N 36°04' W 005°16'2 4.6
2017-Nov-15 19:00N 36°04' W 005°19'0 0.9
2017-Nov-15 18:30N 36°04' W 005°18'1 1.2
2017-Nov-15 18:00N 36°04' W 005°19'0 0.4
2017-Nov-15 17:30N 36°04' W 005°19'0 0.4
2017-Nov-15 17:00N 36°04' W 005°19'2 4.1
2017-Nov-15 16:30N 36°02' W 005°20'714.3
2017-Nov-15 16:01N 35°58' W 005°27'  

Dump ship's entire track history